UNEE/KEJ METAR and TAF weather

Enter ICAO airport designator
Station Type Date Time Source
UNEE METAR 2020/01/27 13:30 UTC NOAA

UNEE 271330Z 15006MPS CAVOK M05/M10 Q1010 R23/950543 NOSIG RMK QFE735


Station Type Date Time Source
UNEE Decoded METAR 2020/01/27 13:30 UTC NOAA

Kemerovo, Russia (UNEE) 55-19-48N 086-04-48E
Jan 27, 2020 - 08:30 AM EST / 2020.01.27 1330 UTC
Wind: from the SSE (150 degrees) at 13 MPH (12 KT):0
Visibility: greater than 7 mile(s):0
Temperature: 23 F (-5 C)
Windchill: 10 F (-12 C):1
Dew Point: 14 F (-10 C)
Relative Humidity: 67%
Pressure (altimeter): 29.83 in. Hg (1010 hPa)
ob: UNEE 271330Z 15006MPS CAVOK M05/M10 Q1010 R23/950543 NOSIG RMK QFE735
cycle: 13

Station Type Date Time Source
UNEE TAF 2020/01/27 12:21 UTC NOAA

TAF UNEE 271100Z 2712/2812 14006G13MPS 9999 SCT020CB
TEMPO 2712/2812 18010G17MPS 1500 SHSN BLSN BKN005 BKN011CB

Example: see airport list